createdAt,value
2023-04-26T00:01:53.274Z,100.00
2023-04-26T00:04:25.196Z,100.00
2023-04-26T00:06:53.503Z,100.00
2023-04-26T00:09:24.734Z,100.00
2023-04-26T00:11:54.664Z,100.00
2023-04-26T00:14:25.591Z,100.00
2023-04-26T00:16:53.944Z,100.00
2023-04-26T00:19:22.750Z,100.00
2023-04-26T00:21:53.425Z,100.00
2023-04-26T00:24:21.386Z,100.00
2023-04-26T00:26:52.380Z,100.00
2023-04-26T00:29:20.332Z,100.00
2023-04-26T00:31:51.006Z,100.00
2023-04-26T00:34:21.955Z,100.00
2023-04-26T00:36:54.305Z,100.00
2023-04-26T00:39:27.449Z,100.00
2023-04-26T00:42:01.880Z,100.00
2023-04-26T00:44:29.677Z,100.00
2023-04-26T00:46:57.605Z,100.00
2023-04-26T00:49:26.700Z,100.00
2023-04-26T00:51:55.415Z,99.95
2023-04-26T00:54:33.629Z,99.21
2023-04-26T00:57:04.334Z,98.61
2023-04-26T00:59:32.560Z,99.23
2023-04-26T01:02:08.275Z,100.00
2023-04-26T01:04:39.740Z,99.98
2023-04-26T01:07:10.555Z,100.00
2023-04-26T01:09:41.235Z,100.00
2023-04-26T01:14:53.829Z,100.00
2023-04-26T01:17:23.964Z,100.00
2023-04-26T01:19:56.862Z,100.00
2023-04-26T01:22:24.836Z,100.00
2023-04-26T01:24:58.819Z,100.00
2023-04-26T01:27:28.443Z,100.00
2023-04-26T01:29:56.713Z,100.00
2023-04-26T01:32:26.503Z,100.00
2023-04-26T01:34:54.452Z,100.00
2023-04-26T01:37:28.612Z,100.00
2023-04-26T01:39:58.636Z,100.00
2023-04-26T01:42:27.421Z,100.00
2023-04-26T01:44:56.208Z,100.00
2023-04-26T01:47:28.282Z,100.00
2023-04-26T01:49:57.249Z,100.00
2023-04-26T01:52:28.423Z,100.00
2023-04-26T01:54:58.976Z,100.00
2023-04-26T01:57:30.193Z,100.00
2023-04-26T02:00:00.207Z,100.00
2023-04-26T02:02:28.257Z,100.00
2023-04-26T02:05:04.006Z,100.00
2023-04-26T02:07:34.565Z,100.00
2023-04-26T02:10:04.673Z,100.00
2023-04-26T02:12:33.425Z,100.00
2023-04-26T02:15:02.523Z,100.00
2023-04-26T02:17:30.840Z,100.00
2023-04-26T02:20:00.680Z,100.00
2023-04-26T02:22:31.398Z,100.00
2023-04-26T02:25:03.961Z,100.00
2023-04-26T02:27:43.946Z,100.00
2023-04-26T02:30:14.169Z,100.00
2023-04-26T02:32:43.121Z,100.00
2023-04-26T02:35:11.280Z,100.00
2023-04-26T02:37:41.702Z,100.00
2023-04-26T02:40:12.118Z,100.00
2023-04-26T02:42:44.504Z,100.00
2023-04-26T02:45:14.701Z,100.00
2023-04-26T02:47:42.750Z,100.00
2023-04-26T02:50:14.008Z,100.00
2023-04-26T02:52:42.959Z,100.00
2023-04-26T02:55:12.792Z,100.00
2023-04-26T02:57:43.708Z,100.00
2023-04-26T03:00:14.540Z,100.00
2023-04-26T03:02:46.822Z,100.00
2023-04-26T03:05:16.078Z,100.00
2023-04-26T03:07:46.767Z,100.00
2023-04-26T03:10:16.016Z,100.00
2023-04-26T03:12:52.085Z,100.00
2023-04-26T03:15:23.520Z,100.00
2023-04-26T03:18:00.516Z,100.00
2023-04-26T03:20:29.419Z,100.00
2023-04-26T03:22:59.475Z,100.00
2023-04-26T03:25:28.926Z,100.00
2023-04-26T03:27:59.619Z,100.00
2023-04-26T03:30:28.402Z,100.00
2023-04-26T03:33:00.194Z,100.00
2023-04-26T03:35:30.698Z,100.00
2023-04-26T03:37:58.786Z,100.00
2023-04-26T03:40:32.364Z,100.00
2023-04-26T03:43:02.442Z,100.00
2023-04-26T03:45:31.576Z,100.00
2023-04-26T03:48:01.592Z,100.00
2023-04-26T03:50:30.437Z,100.00
2023-04-26T03:52:59.082Z,100.00
2023-04-26T03:55:27.249Z,100.00
2023-04-26T03:57:56.666Z,100.00
2023-04-26T04:00:38.433Z,100.00
2023-04-26T04:03:07.848Z,100.00
2023-04-26T04:05:39.658Z,100.00
2023-04-26T04:08:09.201Z,100.00
2023-04-26T04:10:42.527Z,100.00
2023-04-26T04:13:14.110Z,100.00
2023-04-26T04:15:47.484Z,100.00
2023-04-26T04:18:15.751Z,100.00
2023-04-26T04:20:47.736Z,100.00
2023-04-26T04:23:16.507Z,100.00
2023-04-26T04:25:45.780Z,100.00
2023-04-26T04:28:14.734Z,100.00
2023-04-26T04:30:48.123Z,100.00
2023-04-26T04:33:16.518Z,100.00
2023-04-26T04:35:46.489Z,100.00
2023-04-26T04:38:18.810Z,100.00
2023-04-26T04:40:51.067Z,100.00
2023-04-26T04:43:19.871Z,100.00
2023-04-26T04:45:50.507Z,100.00
2023-04-26T04:48:21.286Z,100.00
2023-04-26T04:50:53.157Z,100.00
2023-04-26T04:53:21.790Z,100.00
2023-04-26T04:55:54.217Z,100.00
2023-04-26T04:58:33.706Z,100.00
2023-04-26T05:01:06.642Z,100.00
2023-04-26T05:06:32.413Z,100.00
2023-04-26T05:09:01.491Z,100.00
2023-04-26T05:11:29.410Z,100.00
2023-04-26T05:14:03.637Z,100.00
2023-04-26T05:16:35.354Z,100.00
2023-04-26T05:19:08.023Z,100.00
2023-04-26T05:21:38.507Z,100.00
2023-04-26T05:24:09.182Z,100.00
2023-04-26T05:26:37.159Z,100.00
2023-04-26T05:29:05.323Z,100.00
2023-04-26T05:31:37.526Z,100.00
2023-04-26T05:34:08.957Z,100.00
2023-04-26T05:36:42.927Z,100.00
2023-04-26T05:39:13.392Z,100.00
2023-04-26T05:41:42.454Z,100.00
2023-04-26T05:44:13.221Z,100.00
2023-04-26T05:46:45.059Z,100.00
2023-04-26T05:49:13.361Z,100.00
2023-04-26T05:51:41.424Z,100.00
2023-04-26T05:54:12.897Z,100.00
2023-04-26T05:56:42.854Z,100.00
2023-04-26T05:59:15.648Z,100.00
2023-04-26T06:01:46.904Z,100.00
2023-04-26T06:04:19.226Z,100.00
2023-04-26T06:06:50.989Z,100.00
2023-04-26T06:09:25.730Z,100.00
2023-04-26T06:12:00.557Z,100.00
2023-04-26T06:14:30.759Z,100.00
2023-04-26T06:17:04.709Z,100.00
2023-04-26T06:19:37.820Z,100.00
2023-04-26T06:22:07.079Z,100.00
2023-04-26T06:24:39.926Z,99.31
2023-04-26T06:27:10.815Z,98.04
2023-04-26T06:29:43.020Z,95.32
2023-04-26T06:32:13.138Z,92.87
2023-04-26T06:34:44.196Z,90.47
2023-04-26T06:37:12.883Z,88.87
2023-04-26T06:39:41.161Z,89.72
2023-04-26T06:42:09.265Z,87.75
2023-04-26T06:44:37.446Z,83.18
2023-04-26T06:47:09.388Z,80.34
2023-04-26T06:49:39.022Z,74.51
2023-04-26T06:52:09.143Z,65.92
2023-04-26T06:54:45.932Z,55.34
2023-04-26T06:57:18.068Z,49.83
2023-04-26T06:59:47.511Z,45.17
2023-04-26T07:02:15.948Z,40.31
2023-04-26T07:04:45.658Z,36.88
2023-04-26T07:07:14.381Z,40.03
2023-04-26T07:09:42.227Z,37.34
2023-04-26T07:12:12.324Z,34.80
2023-04-26T07:14:41.454Z,33.12
2023-04-26T07:17:10.467Z,32.59
2023-04-26T07:19:38.621Z,34.67
2023-04-26T07:22:07.715Z,30.41
2023-04-26T07:24:35.378Z,29.83
2023-04-26T07:27:03.442Z,29.75
2023-04-26T07:29:31.270Z,32.82
2023-04-26T07:31:59.232Z,29.60
2023-04-26T07:34:27.138Z,29.14
2023-04-26T07:36:54.789Z,31.36
2023-04-26T07:39:24.177Z,29.33
2023-04-26T07:41:51.892Z,28.69
2023-04-26T07:44:19.590Z,30.76
2023-04-26T07:46:47.306Z,29.04
2023-04-26T07:49:15.010Z,26.08
2023-04-26T07:51:45.739Z,28.48
2023-04-26T07:54:13.699Z,26.50
2023-04-26T07:56:42.783Z,25.25
2023-04-26T07:59:10.492Z,25.79
2023-04-26T08:01:38.886Z,25.19
2023-04-26T08:04:07.388Z,27.61
2023-04-26T08:06:37.643Z,28.85
2023-04-26T08:09:05.508Z,28.47
2023-04-26T08:11:33.944Z,25.42
2023-04-26T08:14:03.117Z,26.80
2023-04-26T08:16:31.036Z,26.34
2023-04-26T08:19:02.779Z,26.49
2023-04-26T08:21:31.037Z,28.23
2023-04-26T08:23:59.031Z,28.40
2023-04-26T08:26:26.775Z,30.64
2023-04-26T08:28:54.808Z,33.30
2023-04-26T08:31:25.283Z,35.03
2023-04-26T08:33:53.357Z,33.51
2023-04-26T08:36:21.578Z,32.50
2023-04-26T08:38:49.288Z,34.46
2023-04-26T08:41:23.308Z,36.15
2023-04-26T08:43:51.673Z,38.86
2023-04-26T08:46:21.705Z,42.14
2023-04-26T08:48:59.006Z,39.61
2023-04-26T08:51:29.047Z,35.43
2023-04-26T08:53:58.956Z,31.37
2023-04-26T08:56:27.538Z,32.11
2023-04-26T08:58:55.677Z,32.50
2023-04-26T09:01:26.018Z,33.79
2023-04-26T09:03:56.934Z,33.79
2023-04-26T09:06:28.147Z,33.32
2023-04-26T09:08:56.963Z,34.43
2023-04-26T09:11:24.785Z,35.67
2023-04-26T09:13:52.849Z,32.71
2023-04-26T09:16:21.034Z,30.71
2023-04-26T09:18:52.234Z,28.62
2023-04-26T09:21:22.000Z,29.35
2023-04-26T09:23:59.432Z,31.64
2023-04-26T09:26:27.332Z,33.12
2023-04-26T09:29:12.933Z,33.37
2023-04-26T09:31:43.592Z,32.17
2023-04-26T09:34:11.980Z,31.48
2023-04-26T09:36:56.910Z,32.93
2023-04-26T09:39:33.385Z,34.96
2023-04-26T09:42:01.916Z,30.75
2023-04-26T09:44:31.117Z,29.81
2023-04-26T09:47:00.744Z,30.52
2023-04-26T09:49:28.848Z,33.00
2023-04-26T09:52:08.419Z,32.89
2023-04-26T09:54:43.616Z,32.92
2023-04-26T09:57:12.050Z,33.01
2023-04-26T09:59:44.524Z,34.14
2023-04-26T10:02:17.170Z,33.23
2023-04-26T10:04:49.555Z,32.97
2023-04-26T10:07:22.022Z,31.18
2023-04-26T10:09:51.249Z,30.59
2023-04-26T10:12:21.856Z,30.13
2023-04-26T10:14:50.912Z,29.80
2023-04-26T10:17:22.032Z,30.95
2023-04-26T10:19:55.128Z,32.87
2023-04-26T10:22:30.741Z,30.93
2023-04-26T10:24:59.345Z,30.58
2023-04-26T10:27:50.403Z,31.57
2023-04-26T10:30:20.872Z,32.25
2023-04-26T10:33:16.827Z,31.94
2023-04-26T10:36:15.366Z,32.03
2023-04-26T10:39:22.176Z,32.54
2023-04-26T10:41:50.925Z,32.34
2023-04-26T10:44:39.850Z,33.18
2023-04-26T10:47:08.824Z,35.34
2023-04-26T10:49:48.935Z,35.83
2023-04-26T10:52:20.288Z,37.80
2023-04-26T10:54:52.204Z,39.16
2023-04-26T10:57:25.823Z,40.02
2023-04-26T11:00:20.961Z,39.54
2023-04-26T11:02:55.997Z,38.97
2023-04-26T11:05:42.557Z,38.67
2023-04-26T11:08:18.374Z,37.96
2023-04-26T11:10:53.114Z,38.35
2023-04-26T11:13:21.376Z,38.56
2023-04-26T11:15:54.087Z,37.64
2023-04-26T11:18:22.241Z,38.04
2023-04-26T11:20:50.407Z,36.61
2023-04-26T11:23:19.892Z,34.87
2023-04-26T11:25:49.188Z,35.02
2023-04-26T11:28:17.210Z,35.68
2023-04-26T11:30:45.052Z,35.83
2023-04-26T11:33:19.738Z,36.26
2023-04-26T11:35:48.289Z,35.45
2023-04-26T11:38:16.472Z,34.89
2023-04-26T11:40:44.724Z,34.57
2023-04-26T11:43:15.604Z,34.64
2023-04-26T11:45:43.547Z,35.50
2023-04-26T11:48:13.575Z,36.13
2023-04-26T11:50:42.659Z,35.37
2023-04-26T11:53:10.551Z,35.60
2023-04-26T11:55:38.435Z,35.54
2023-04-26T11:58:15.792Z,35.78
2023-04-26T12:01:01.846Z,36.37
2023-04-26T12:03:35.442Z,36.15
2023-04-26T12:06:03.948Z,35.69
2023-04-26T12:08:33.852Z,35.86
2023-04-26T12:11:03.907Z,36.38
2023-04-26T12:13:33.047Z,35.34
2023-04-26T12:16:01.119Z,35.69
2023-04-26T12:18:33.788Z,36.06
2023-04-26T12:21:01.932Z,35.95
2023-04-26T12:23:40.247Z,35.20
2023-04-26T12:26:11.149Z,35.64
2023-04-26T12:28:41.351Z,35.00
2023-04-26T12:31:09.579Z,35.38
2023-04-26T12:33:37.588Z,35.13
2023-04-26T12:36:10.014Z,35.93
2023-04-26T12:38:38.003Z,35.53
2023-04-26T12:41:06.076Z,34.82
2023-04-26T12:43:33.881Z,35.71
2023-04-26T12:46:03.031Z,35.62
2023-04-26T12:48:30.784Z,36.45
2023-04-26T12:50:58.822Z,35.69
2023-04-26T12:53:26.940Z,35.97
2023-04-26T12:55:54.688Z,35.45
2023-04-26T12:58:22.855Z,36.33
2023-04-26T13:00:51.463Z,36.17
2023-04-26T13:03:20.680Z,36.18
2023-04-26T13:05:48.533Z,36.17
2023-04-26T13:08:16.836Z,36.15
2023-04-26T13:10:44.576Z,35.74
2023-04-26T13:13:12.354Z,36.14
2023-04-26T13:15:40.328Z,35.00
2023-04-26T13:18:08.408Z,35.06
2023-04-26T13:20:38.504Z,36.29
2023-04-26T13:23:06.572Z,36.90
2023-04-26T13:25:34.318Z,36.94
2023-04-26T13:28:02.932Z,37.20
2023-04-26T13:30:31.230Z,37.53
2023-04-26T13:33:00.233Z,37.66
2023-04-26T13:35:28.608Z,36.96
2023-04-26T13:37:57.779Z,37.23
2023-04-26T13:40:25.594Z,37.98
2023-04-26T13:42:53.425Z,38.45
2023-04-26T13:45:21.555Z,38.60
2023-04-26T13:47:49.362Z,38.13
2023-04-26T13:50:17.749Z,37.73
2023-04-26T13:52:45.542Z,37.83
2023-04-26T13:55:15.023Z,37.37
2023-04-26T13:57:42.894Z,37.54
2023-04-26T14:00:12.241Z,37.69
2023-04-26T14:02:40.461Z,36.27
2023-04-26T14:05:09.432Z,36.85
2023-04-26T14:07:37.408Z,37.13
2023-04-26T14:10:09.024Z,37.37
2023-04-26T14:12:38.341Z,36.75
2023-04-26T14:15:07.802Z,36.30
2023-04-26T14:17:35.736Z,36.97
2023-04-26T14:20:11.745Z,37.28
2023-04-26T14:22:39.666Z,37.46
2023-04-26T14:25:08.147Z,37.85
2023-04-26T14:27:37.454Z,38.56
2023-04-26T14:30:09.318Z,38.66
2023-04-26T14:32:40.147Z,38.53
2023-04-26T14:35:08.884Z,38.49
2023-04-26T14:37:36.832Z,38.98
2023-04-26T14:40:10.939Z,38.41
2023-04-26T14:42:44.346Z,38.36
2023-04-26T14:45:13.888Z,37.72
2023-04-26T14:47:42.125Z,37.84
2023-04-26T14:50:11.214Z,38.84
2023-04-26T14:52:39.192Z,38.60
2023-04-26T14:55:08.171Z,38.58
2023-04-26T14:57:36.326Z,38.57
2023-04-26T15:00:07.609Z,38.86
2023-04-26T15:02:36.986Z,39.19
2023-04-26T15:05:06.037Z,38.88
2023-04-26T15:07:34.618Z,38.79
2023-04-26T15:10:02.638Z,38.97
2023-04-26T15:12:30.718Z,38.83
2023-04-26T15:15:00.170Z,38.14
2023-04-26T15:17:29.412Z,38.25
2023-04-26T15:20:01.036Z,38.83
2023-04-26T15:22:31.257Z,39.30
2023-04-26T15:24:59.369Z,39.08
2023-04-26T15:27:28.602Z,39.36
2023-04-26T15:29:58.666Z,39.83
2023-04-26T15:32:26.762Z,39.75
2023-04-26T15:34:54.508Z,39.91
2023-04-26T15:37:23.889Z,39.21
2023-04-26T15:39:51.626Z,38.77
2023-04-26T15:42:19.293Z,38.44
2023-04-26T15:44:47.068Z,38.87
2023-04-26T15:47:16.497Z,39.26
2023-04-26T15:49:45.929Z,39.63
2023-04-26T15:52:13.595Z,39.10
2023-04-26T15:54:42.893Z,39.29
2023-04-26T15:57:12.328Z,38.83
2023-04-26T15:59:41.128Z,38.47
2023-04-26T16:02:09.375Z,38.14
2023-04-26T16:04:39.824Z,38.56
2023-04-26T16:07:08.050Z,39.12
2023-04-26T16:09:37.296Z,39.00
2023-04-26T16:12:07.325Z,39.06
2023-04-26T16:14:35.000Z,38.46
2023-04-26T16:17:04.728Z,38.21
2023-04-26T16:19:34.803Z,38.27
2023-04-26T16:22:04.430Z,37.39
2023-04-26T16:24:32.381Z,37.67
2023-04-26T16:27:00.025Z,37.67
2023-04-26T16:29:29.166Z,38.09
2023-04-26T16:31:57.510Z,38.35
2023-04-26T16:34:26.864Z,37.99
2023-04-26T16:36:54.723Z,38.20
2023-04-26T16:39:23.319Z,38.38
2023-04-26T16:41:52.022Z,39.05
2023-04-26T16:44:19.730Z,38.99
2023-04-26T16:46:48.838Z,39.58
2023-04-26T16:49:16.690Z,38.91
2023-04-26T16:51:49.397Z,39.28
2023-04-26T16:54:17.383Z,39.71
2023-04-26T16:56:45.774Z,39.36
2023-04-26T16:59:13.701Z,39.86
2023-04-26T17:01:41.449Z,39.84
2023-04-26T17:04:12.951Z,39.50
2023-04-26T17:06:41.271Z,39.68
2023-04-26T17:09:09.128Z,39.73
2023-04-26T17:11:37.488Z,39.73
2023-04-26T17:14:06.217Z,40.38
2023-04-26T17:16:34.042Z,39.53
2023-04-26T17:19:01.876Z,39.60
2023-04-26T17:21:31.863Z,39.24
2023-04-26T17:23:59.660Z,39.36
2023-04-26T17:26:27.682Z,39.35
2023-04-26T17:28:57.258Z,39.42
2023-04-26T17:31:25.176Z,39.33
2023-04-26T17:33:53.338Z,40.31
2023-04-26T17:36:23.612Z,40.30
2023-04-26T17:38:53.036Z,40.38
2023-04-26T17:41:23.172Z,41.94
2023-04-26T17:43:51.134Z,41.48
2023-04-26T17:46:18.898Z,42.19
2023-04-26T17:48:46.962Z,42.29
2023-04-26T17:51:14.823Z,42.40
2023-04-26T17:53:42.688Z,42.58
2023-04-26T17:56:14.548Z,42.37
2023-04-26T17:58:43.674Z,41.73
2023-04-26T18:01:11.579Z,41.83
2023-04-26T18:03:39.693Z,42.22
2023-04-26T18:06:07.962Z,42.22
2023-04-26T18:08:35.870Z,42.55
2023-04-26T18:11:03.594Z,42.30
2023-04-26T18:13:32.639Z,43.02
2023-04-26T18:16:00.747Z,42.97
2023-04-26T18:18:28.414Z,43.18
2023-04-26T18:20:56.316Z,43.39
2023-04-26T18:23:24.305Z,43.35
2023-04-26T18:25:52.734Z,43.84
2023-04-26T18:28:20.711Z,44.33
2023-04-26T18:30:49.821Z,44.54
2023-04-26T18:33:17.624Z,45.19
2023-04-26T18:35:45.476Z,45.01
2023-04-26T18:38:13.148Z,45.29
2023-04-26T18:40:44.338Z,46.04
2023-04-26T18:43:12.353Z,45.80
2023-04-26T18:45:40.130Z,45.58
2023-04-26T18:48:09.724Z,45.55
2023-04-26T18:50:37.483Z,45.75
2023-04-26T18:53:07.551Z,45.75
2023-04-26T18:55:35.257Z,44.84
2023-04-26T18:58:03.508Z,45.32
2023-04-26T19:00:32.609Z,45.38
2023-04-26T19:03:04.019Z,45.49
2023-04-26T19:05:44.356Z,45.75
2023-04-26T19:08:16.098Z,45.64
2023-04-26T19:10:44.522Z,45.75
2023-04-26T19:13:20.244Z,46.22
2023-04-26T19:15:48.463Z,46.93
2023-04-26T19:18:19.335Z,47.44
2023-04-26T19:20:49.791Z,47.47
2023-04-26T19:23:17.840Z,47.71
2023-04-26T19:25:47.519Z,48.70
2023-04-26T19:28:16.488Z,49.10
2023-04-26T19:30:45.440Z,49.36
2023-04-26T19:33:16.784Z,49.16
2023-04-26T19:35:44.912Z,49.38
2023-04-26T19:38:14.065Z,50.19
2023-04-26T19:40:44.857Z,50.58
2023-04-26T19:43:17.377Z,50.31
2023-04-26T19:45:48.872Z,50.30
2023-04-26T19:48:16.944Z,50.75
2023-04-26T19:50:54.816Z,51.42
2023-04-26T19:53:34.189Z,50.78
2023-04-26T19:56:04.293Z,51.79
2023-04-26T19:58:32.668Z,52.07
2023-04-26T20:01:01.568Z,51.54
2023-04-26T20:03:32.963Z,51.72
2023-04-26T20:06:01.848Z,51.59
2023-04-26T20:08:33.602Z,51.59
2023-04-26T20:11:07.259Z,51.48
2023-04-26T20:13:37.837Z,51.27
2023-04-26T20:16:06.296Z,51.22
2023-04-26T20:18:47.197Z,52.22
2023-04-26T20:21:15.705Z,52.28
2023-04-26T20:23:45.633Z,52.20
2023-04-26T20:26:15.556Z,52.76
2023-04-26T20:28:51.309Z,53.43
2023-04-26T20:31:19.683Z,53.86
2023-04-26T20:33:49.516Z,55.28
2023-04-26T20:36:17.896Z,55.19
2023-04-26T20:38:47.487Z,54.67
2023-04-26T20:41:15.581Z,55.95
2023-04-26T20:43:47.038Z,56.03
2023-04-26T20:46:17.878Z,55.84
2023-04-26T20:48:47.276Z,58.37
2023-04-26T20:51:15.662Z,58.30
2023-04-26T20:53:51.228Z,60.17
2023-04-26T20:56:20.355Z,60.04
2023-04-26T20:58:52.498Z,71.06
2023-04-26T21:01:25.092Z,71.87
2023-04-26T21:03:55.295Z,73.69
2023-04-26T21:06:27.815Z,73.45
2023-04-26T21:08:58.628Z,74.25
2023-04-26T21:11:30.718Z,73.82
2023-04-26T21:14:01.595Z,67.57
2023-04-26T21:16:37.298Z,67.67
2023-04-26T21:19:12.175Z,68.95
2023-04-26T21:21:39.999Z,69.12
2023-04-26T21:24:09.572Z,68.90
2023-04-26T21:26:40.147Z,71.94
2023-04-26T21:29:21.168Z,66.00
2023-04-26T21:31:49.052Z,69.26
2023-04-26T21:34:17.539Z,72.65
2023-04-26T21:36:47.633Z,74.35
2023-04-26T21:39:16.496Z,74.20
2023-04-26T21:42:05.002Z,76.41
2023-04-26T21:44:35.740Z,82.62
2023-04-26T21:47:06.706Z,86.25
2023-04-26T21:49:37.598Z,81.19
2023-04-26T21:52:06.956Z,81.50
2023-04-26T21:54:39.027Z,75.34
2023-04-26T21:57:11.401Z,74.43
2023-04-26T21:59:44.623Z,72.60
2023-04-26T22:02:15.154Z,74.42
2023-04-26T22:04:46.350Z,73.33
2023-04-26T22:07:14.681Z,68.53
2023-04-26T22:09:43.020Z,63.00
2023-04-26T22:12:12.727Z,61.20
2023-04-26T22:14:43.034Z,59.12
2023-04-26T22:17:20.348Z,63.71
2023-04-26T22:19:50.007Z,62.32
2023-04-26T22:22:19.199Z,67.20
2023-04-26T22:24:47.214Z,70.37
2023-04-26T22:27:17.672Z,66.71
2023-04-26T22:29:45.517Z,66.45
2023-04-26T22:32:23.914Z,69.29
2023-04-26T22:34:52.760Z,74.66
2023-04-26T22:37:23.703Z,74.36
2023-04-26T22:39:53.767Z,65.11
2023-04-26T22:42:31.450Z,63.77
2023-04-26T22:45:00.811Z,63.32
2023-04-26T22:47:29.116Z,73.98
2023-04-26T22:49:57.383Z,76.64
2023-04-26T22:52:31.391Z,78.11
2023-04-26T22:55:01.718Z,78.93
2023-04-26T22:57:33.436Z,79.27
2023-04-26T23:00:04.352Z,80.82
2023-04-26T23:02:36.304Z,79.44
2023-04-26T23:05:05.414Z,69.89
2023-04-26T23:07:36.293Z,69.54
2023-04-26T23:10:04.466Z,69.12
2023-04-26T23:12:36.063Z,69.37
2023-04-26T23:15:06.285Z,70.86
2023-04-26T23:17:36.759Z,74.64
2023-04-26T23:20:14.441Z,79.95
2023-04-26T23:22:45.729Z,82.91
2023-04-26T23:25:13.437Z,83.22
2023-04-26T23:27:47.248Z,86.02
2023-04-26T23:30:17.047Z,91.40
2023-04-26T23:32:44.880Z,92.45
2023-04-26T23:35:14.494Z,93.07
2023-04-26T23:37:43.092Z,95.16
2023-04-26T23:40:15.132Z,98.35
2023-04-26T23:42:46.559Z,98.89
2023-04-26T23:45:16.887Z,98.53
2023-04-26T23:47:47.142Z,98.54
2023-04-26T23:50:15.177Z,100.00
2023-04-26T23:52:44.412Z,100.00
2023-04-26T23:55:15.664Z,100.00
2023-04-26T23:57:45.453Z,100.00
